Terminal Aerodrome Forecast
Issued by NWS

Home | Current Version | Previous Version | Text Only | Print | Product List | Glossary On
Versions: 1 2 3 4 5 6 7 8 9 10 11 12 13 14 15 16 17
342
FTUS46 KSEW 261725
TAFBFI
TAF
KBFI 261725Z 2618/2718 21009G16KT P6SM VCSH SCT020 BKN080
     FM262100 20013G20KT P6SM VCSH SCT025 BKN040
     FM270000 31013KT P6SM VCSH OVC040
     FM270700 17008KT P6SM OVC019=

USA.gov is the U.S. government's official web portal to all federal, state and local government web resources and services.